sensor_id;sensor_type;location;lat;lon;timestamp;temperature;humidity
11840;DHT22;5979;50.800;4.904;2023-01-08T00:02:14;10.30;99.90
11840;DHT22;5979;50.800;4.904;2023-01-08T00:04:39;10.30;99.90
11840;DHT22;5979;50.800;4.904;2023-01-08T00:07:05;10.30;99.90
11840;DHT22;5979;50.800;4.904;2023-01-08T00:09:31;10.30;99.90
11840;DHT22;5979;50.800;4.904;2023-01-08T00:11:56;10.40;99.90
11840;DHT22;5979;50.800;4.904;2023-01-08T00:14:22;10.40;99.90
11840;DHT22;5979;50.800;4.904;2023-01-08T00:16:47;10.40;99.90
11840;DHT22;5979;50.800;4.904;2023-01-08T00:19:13;10.50;99.90
11840;DHT22;5979;50.800;4.904;2023-01-08T00:21:39;10.40;99.90
11840;DHT22;5979;50.800;4.904;2023-01-08T00:24:05;10.40;99.90
11840;DHT22;5979;50.800;4.904;2023-01-08T00:26:31;10.40;99.90
11840;DHT22;5979;50.800;4.904;2023-01-08T00:28:56;10.40;99.90
11840;DHT22;5979;50.800;4.904;2023-01-08T00:31:22;10.50;99.90
11840;DHT22;5979;50.800;4.904;2023-01-08T00:33:48;10.50;99.90
11840;DHT22;5979;50.800;4.904;2023-01-08T00:36:16;10.50;99.90
11840;DHT22;5979;50.800;4.904;2023-01-08T00:38:43;10.40;99.90
11840;DHT22;5979;50.800;4.904;2023-01-08T00:41:09;10.50;99.90
11840;DHT22;5979;50.800;4.904;2023-01-08T00:43:35;10.40;99.90
11840;DHT22;5979;50.800;4.904;2023-01-08T00:46:00;10.40;99.90
11840;DHT22;5979;50.800;4.904;2023-01-08T00:48:26;10.40;99.90
11840;DHT22;5979;50.800;4.904;2023-01-08T00:50:53;10.40;99.90
11840;DHT22;5979;50.800;4.904;2023-01-08T00:53:20;10.40;99.90
11840;DHT22;5979;50.800;4.904;2023-01-08T00:55:46;10.40;99.90
11840;DHT22;5979;50.800;4.904;2023-01-08T00:58:12;10.40;99.90
11840;DHT22;5979;50.800;4.904;2023-01-08T01:00:38;10.40;99.90
11840;DHT22;5979;50.800;4.904;2023-01-08T01:03:04;10.40;99.90
11840;DHT22;5979;50.800;4.904;2023-01-08T01:05:30;10.40;99.90
11840;DHT22;5979;50.800;4.904;2023-01-08T01:07:56;10.40;99.90
11840;DHT22;5979;50.800;4.904;2023-01-08T01:10:22;10.40;99.90
11840;DHT22;5979;50.800;4.904;2023-01-08T01:12:48;10.40;99.90
11840;DHT22;5979;50.800;4.904;2023-01-08T01:15:18;10.50;99.90
11840;DHT22;5979;50.800;4.904;2023-01-08T01:17:45;10.50;99.90
11840;DHT22;5979;50.800;4.904;2023-01-08T01:20:13;10.50;99.90
11840;DHT22;5979;50.800;4.904;2023-01-08T01:22:39;10.50;99.90
11840;DHT22;5979;50.800;4.904;2023-01-08T01:25:06;10.50;99.90
11840;DHT22;5979;50.800;4.904;2023-01-08T01:27:32;10.50;99.90
11840;DHT22;5979;50.800;4.904;2023-01-08T01:29:58;10.50;99.90
11840;DHT22;5979;50.800;4.904;2023-01-08T01:32:23;10.40;99.90
11840;DHT22;5979;50.800;4.904;2023-01-08T01:34:49;10.40;99.90
11840;DHT22;5979;50.800;4.904;2023-01-08T01:37:15;10.40;99.90
11840;DHT22;5979;50.800;4.904;2023-01-08T01:39:41;10.40;99.90
11840;DHT22;5979;50.800;4.904;2023-01-08T01:42:15;10.40;99.90
11840;DHT22;5979;50.800;4.904;2023-01-08T01:44:59;10.40;99.90
11840;DHT22;5979;50.800;4.904;2023-01-08T01:47:37;10.40;99.90
11840;DHT22;5979;50.800;4.904;2023-01-08T01:50:13;10.40;99.90
11840;DHT22;5979;50.800;4.904;2023-01-08T01:52:50;10.40;99.90
11840;DHT22;5979;50.800;4.904;2023-01-08T01:55:17;10.40;99.90
11840;DHT22;5979;50.800;4.904;2023-01-08T01:58:00;10.40;99.90
11840;DHT22;5979;50.800;4.904;2023-01-08T02:00:28;10.40;99.90
11840;DHT22;5979;50.800;4.904;2023-01-08T02:02:54;10.40;99.90
11840;DHT22;5979;50.800;4.904;2023-01-08T02:05:21;10.30;99.90
11840;DHT22;5979;50.800;4.904;2023-01-08T02:08:10;10.30;99.90
11840;DHT22;5979;50.800;4.904;2023-01-08T02:13:12;10.20;99.90
11840;DHT22;5979;50.800;4.904;2023-01-08T02:18:15;10.20;99.90
11840;DHT22;5979;50.800;4.904;2023-01-08T02:20:51;10.20;99.90
11840;DHT22;5979;50.800;4.904;2023-01-08T02:23:29;10.20;99.90
11840;DHT22;5979;50.800;4.904;2023-01-08T02:31:23;10.20;99.90
11840;DHT22;5979;50.800;4.904;2023-01-08T02:33:50;10.20;99.90
11840;DHT22;5979;50.800;4.904;2023-01-08T02:41:28;10.10;99.90
11840;DHT22;5979;50.800;4.904;2023-01-08T02:43:57;10.10;99.90
11840;DHT22;5979;50.800;4.904;2023-01-08T02:46:26;10.20;99.90
11840;DHT22;5979;50.800;4.904;2023-01-08T02:49:02;10.20;99.90
11840;DHT22;5979;50.800;4.904;2023-01-08T02:51:46;10.20;99.90
11840;DHT22;5979;50.800;4.904;2023-01-08T02:54:20;10.10;99.90
11840;DHT22;5979;50.800;4.904;2023-01-08T02:56:52;10.20;99.90
11840;DHT22;5979;50.800;4.904;2023-01-08T02:59:20;10.20;99.90
11840;DHT22;5979;50.800;4.904;2023-01-08T03:01:46;10.10;99.90
11840;DHT22;5979;50.800;4.904;2023-01-08T03:04:18;10.10;99.90
11840;DHT22;5979;50.800;4.904;2023-01-08T03:06:45;10.20;99.90
11840;DHT22;5979;50.800;4.904;2023-01-08T03:09:12;10.20;99.90
11840;DHT22;5979;50.800;4.904;2023-01-08T03:12:08;10.20;99.90
11840;DHT22;5979;50.800;4.904;2023-01-08T03:14:36;10.20;99.90
11840;DHT22;5979;50.800;4.904;2023-01-08T03:19:53;10.20;99.90
11840;DHT22;5979;50.800;4.904;2023-01-08T03:22:21;10.10;99.90
11840;DHT22;5979;50.800;4.904;2023-01-08T03:24:50;10.10;99.90
11840;DHT22;5979;50.800;4.904;2023-01-08T03:27:22;10.00;99.90
11840;DHT22;5979;50.800;4.904;2023-01-08T03:29:51;10.00;99.90
11840;DHT22;5979;50.800;4.904;2023-01-08T03:32:19;9.90;99.90
11840;DHT22;5979;50.800;4.904;2023-01-08T03:34:47;9.90;99.90
11840;DHT22;5979;50.800;4.904;2023-01-08T03:37:18;9.80;99.90
11840;DHT22;5979;50.800;4.904;2023-01-08T03:39:58;9.80;99.90
11840;DHT22;5979;50.800;4.904;2023-01-08T03:42:26;9.80;99.90
11840;DHT22;5979;50.800;4.904;2023-01-08T03:44:53;9.80;99.90
11840;DHT22;5979;50.800;4.904;2023-01-08T03:47:21;9.80;99.90
11840;DHT22;5979;50.800;4.904;2023-01-08T03:49:48;9.70;99.90
11840;DHT22;5979;50.800;4.904;2023-01-08T03:52:33;9.70;99.90
11840;DHT22;5979;50.800;4.904;2023-01-08T03:54:59;9.70;99.90
11840;DHT22;5979;50.800;4.904;2023-01-08T03:57:25;9.70;99.90
11840;DHT22;5979;50.800;4.904;2023-01-08T03:59:50;9.60;99.90
11840;DHT22;5979;50.800;4.904;2023-01-08T04:02:16;9.60;99.90
11840;DHT22;5979;50.800;4.904;2023-01-08T04:04:42;9.50;99.90
11840;DHT22;5979;50.800;4.904;2023-01-08T04:07:11;9.50;99.90
11840;DHT22;5979;50.800;4.904;2023-01-08T04:09:37;9.50;99.90
11840;DHT22;5979;50.800;4.904;2023-01-08T04:12:03;9.40;99.90
11840;DHT22;5979;50.800;4.904;2023-01-08T04:14:28;9.40;99.90
11840;DHT22;5979;50.800;4.904;2023-01-08T04:16:54;9.30;99.90
11840;DHT22;5979;50.800;4.904;2023-01-08T04:19:20;9.30;99.90
11840;DHT22;5979;50.800;4.904;2023-01-08T04:21:48;9.20;99.90
11840;DHT22;5979;50.800;4.904;2023-01-08T04:24:14;9.20;99.90
11840;DHT22;5979;50.800;4.904;2023-01-08T04:26:39;9.10;99.90
11840;DHT22;5979;50.800;4.904;2023-01-08T04:29:05;9.10;99.90
11840;DHT22;5979;50.800;4.904;2023-01-08T04:31:31;9.00;99.90
11840;DHT22;5979;50.800;4.904;2023-01-08T04:33:57;9.00;99.90
11840;DHT22;5979;50.800;4.904;2023-01-08T04:36:22;9.00;99.90
11840;DHT22;5979;50.800;4.904;2023-01-08T04:38:48;9.00;99.90
11840;DHT22;5979;50.800;4.904;2023-01-08T04:41:13;8.90;99.90
11840;DHT22;5979;50.800;4.904;2023-01-08T04:43:42;8.80;99.90
11840;DHT22;5979;50.800;4.904;2023-01-08T04:46:08;8.80;99.90
11840;DHT22;5979;50.800;4.904;2023-01-08T04:48:34;8.70;99.90
11840;DHT22;5979;50.800;4.904;2023-01-08T04:51:01;8.60;99.90
11840;DHT22;5979;50.800;4.904;2023-01-08T04:53:28;8.50;99.90
11840;DHT22;5979;50.800;4.904;2023-01-08T04:55:54;8.50;99.90
11840;DHT22;5979;50.800;4.904;2023-01-08T04:58:20;8.40;99.90
11840;DHT22;5979;50.800;4.904;2023-01-08T05:00:46;8.40;99.90
11840;DHT22;5979;50.800;4.904;2023-01-08T05:03:12;8.40;99.90
11840;DHT22;5979;50.800;4.904;2023-01-08T05:05:37;8.30;99.90
11840;DHT22;5979;50.800;4.904;2023-01-08T05:08:03;8.20;99.90
11840;DHT22;5979;50.800;4.904;2023-01-08T05:10:29;8.20;99.90
11840;DHT22;5979;50.800;4.904;2023-01-08T05:12:59;8.10;99.90
11840;DHT22;5979;50.800;4.904;2023-01-08T05:15:25;8.10;99.90
11840;DHT22;5979;50.800;4.904;2023-01-08T05:18:02;8.10;99.90
11840;DHT22;5979;50.800;4.904;2023-01-08T05:20:28;8.00;99.90
11840;DHT22;5979;50.800;4.904;2023-01-08T05:22:54;8.00;99.90
11840;DHT22;5979;50.800;4.904;2023-01-08T05:25:19;8.00;99.90
11840;DHT22;5979;50.800;4.904;2023-01-08T05:27:46;8.00;99.90
11840;DHT22;5979;50.800;4.904;2023-01-08T05:30:12;8.00;99.90
11840;DHT22;5979;50.800;4.904;2023-01-08T05:32:37;8.00;99.90
11840;DHT22;5979;50.800;4.904;2023-01-08T05:35:03;7.90;99.90
11840;DHT22;5979;50.800;4.904;2023-01-08T05:37:29;7.80;99.90
11840;DHT22;5979;50.800;4.904;2023-01-08T05:39:55;7.80;99.90
11840;DHT22;5979;50.800;4.904;2023-01-08T05:42:20;7.80;99.90
11840;DHT22;5979;50.800;4.904;2023-01-08T05:44:46;7.70;99.90
11840;DHT22;5979;50.800;4.904;2023-01-08T05:47:12;7.70;99.90
11840;DHT22;5979;50.800;4.904;2023-01-08T05:49:37;7.70;99.90
11840;DHT22;5979;50.800;4.904;2023-01-08T05:52:03;7.70;99.90
11840;DHT22;5979;50.800;4.904;2023-01-08T05:54:29;7.70;99.90
11840;DHT22;5979;50.800;4.904;2023-01-08T05:56:55;7.60;99.90
11840;DHT22;5979;50.800;4.904;2023-01-08T05:59:20;7.60;99.90
11840;DHT22;5979;50.800;4.904;2023-01-08T06:01:46;7.60;99.90
11840;DHT22;5979;50.800;4.904;2023-01-08T06:04:12;7.60;99.90
11840;DHT22;5979;50.800;4.904;2023-01-08T06:06:37;7.60;99.90
11840;DHT22;5979;50.800;4.904;2023-01-08T06:09:03;7.60;99.90
11840;DHT22;5979;50.800;4.904;2023-01-08T06:11:29;7.50;99.90
11840;DHT22;5979;50.800;4.904;2023-01-08T06:13:54;7.60;99.90
11840;DHT22;5979;50.800;4.904;2023-01-08T06:16:20;7.50;99.90
11840;DHT22;5979;50.800;4.904;2023-01-08T06:18:46;7.60;99.90
11840;DHT22;5979;50.800;4.904;2023-01-08T06:21:12;7.60;99.90
11840;DHT22;5979;50.800;4.904;2023-01-08T06:23:38;7.60;99.90
11840;DHT22;5979;50.800;4.904;2023-01-08T06:26:04;7.60;99.90
11840;DHT22;5979;50.800;4.904;2023-01-08T06:28:30;7.60;99.90
11840;DHT22;5979;50.800;4.904;2023-01-08T06:30:57;7.60;99.90
11840;DHT22;5979;50.800;4.904;2023-01-08T06:33:23;7.60;99.90
11840;DHT22;5979;50.800;4.904;2023-01-08T06:35:49;7.60;99.90
11840;DHT22;5979;50.800;4.904;2023-01-08T06:38:15;7.60;99.90
11840;DHT22;5979;50.800;4.904;2023-01-08T06:40:43;7.60;99.90
11840;DHT22;5979;50.800;4.904;2023-01-08T06:43:09;7.60;99.90
11840;DHT22;5979;50.800;4.904;2023-01-08T06:45:35;7.60;99.90
11840;DHT22;5979;50.800;4.904;2023-01-08T06:48:02;7.60;99.90
11840;DHT22;5979;50.800;4.904;2023-01-08T06:50:29;7.60;99.90
11840;DHT22;5979;50.800;4.904;2023-01-08T06:52:55;7.60;99.90
11840;DHT22;5979;50.800;4.904;2023-01-08T06:55:21;7.60;99.90
11840;DHT22;5979;50.800;4.904;2023-01-08T06:57:47;7.60;99.90
11840;DHT22;5979;50.800;4.904;2023-01-08T07:00:13;7.60;99.90
11840;DHT22;5979;50.800;4.904;2023-01-08T07:02:39;7.70;99.90
11840;DHT22;5979;50.800;4.904;2023-01-08T07:05:05;7.70;99.90
11840;DHT22;5979;50.800;4.904;2023-01-08T07:07:31;7.70;99.90
11840;DHT22;5979;50.800;4.904;2023-01-08T07:09:57;7.70;99.90
11840;DHT22;5979;50.800;4.904;2023-01-08T07:12:23;7.70;99.90
11840;DHT22;5979;50.800;4.904;2023-01-08T07:14:49;7.70;99.90
11840;DHT22;5979;50.800;4.904;2023-01-08T07:17:15;7.70;99.90
11840;DHT22;5979;50.800;4.904;2023-01-08T07:19:40;7.70;99.90
11840;DHT22;5979;50.800;4.904;2023-01-08T07:22:07;7.80;99.90
11840;DHT22;5979;50.800;4.904;2023-01-08T07:24:33;7.70;99.90
11840;DHT22;5979;50.800;4.904;2023-01-08T07:26:59;7.70;99.90
11840;DHT22;5979;50.800;4.904;2023-01-08T07:29:24;7.80;99.90
11840;DHT22;5979;50.800;4.904;2023-01-08T07:31:51;7.80;99.90
11840;DHT22;5979;50.800;4.904;2023-01-08T07:34:17;7.80;99.90
11840;DHT22;5979;50.800;4.904;2023-01-08T07:36:43;7.90;99.90
11840;DHT22;5979;50.800;4.904;2023-01-08T07:39:08;7.90;99.90
11840;DHT22;5979;50.800;4.904;2023-01-08T07:41:34;8.00;99.90
11840;DHT22;5979;50.800;4.904;2023-01-08T07:44:00;8.00;99.90
11840;DHT22;5979;50.800;4.904;2023-01-08T07:46:26;8.10;99.90
11840;DHT22;5979;50.800;4.904;2023-01-08T07:48:51;8.20;99.90
11840;DHT22;5979;50.800;4.904;2023-01-08T07:51:17;8.20;99.90
11840;DHT22;5979;50.800;4.904;2023-01-08T07:53:43;8.20;99.90
11840;DHT22;5979;50.800;4.904;2023-01-08T07:56:09;8.30;99.90
11840;DHT22;5979;50.800;4.904;2023-01-08T07:58:36;8.30;99.90
11840;DHT22;5979;50.800;4.904;2023-01-08T08:01:03;8.30;99.90
11840;DHT22;5979;50.800;4.904;2023-01-08T08:03:31;8.40;99.90
11840;DHT22;5979;50.800;4.904;2023-01-08T08:05:59;8.40;99.90
11840;DHT22;5979;50.800;4.904;2023-01-08T08:08:25;8.50;99.90
11840;DHT22;5979;50.800;4.904;2023-01-08T08:10:51;8.50;99.90
11840;DHT22;5979;50.800;4.904;2023-01-08T08:13:17;8.60;99.90
11840;DHT22;5979;50.800;4.904;2023-01-08T08:15:42;8.60;99.90
11840;DHT22;5979;50.800;4.904;2023-01-08T08:18:09;8.70;99.90
11840;DHT22;5979;50.800;4.904;2023-01-08T08:20:35;8.80;99.90
11840;DHT22;5979;50.800;4.904;2023-01-08T08:25:27;8.80;99.90
11840;DHT22;5979;50.800;4.904;2023-01-08T08:27:55;8.70;99.90
11840;DHT22;5979;50.800;4.904;2023-01-08T08:30:22;8.70;99.90
11840;DHT22;5979;50.800;4.904;2023-01-08T08:32:47;8.70;99.90
11840;DHT22;5979;50.800;4.904;2023-01-08T08:35:13;8.60;99.90
11840;DHT22;5979;50.800;4.904;2023-01-08T08:37:39;8.60;99.90
11840;DHT22;5979;50.800;4.904;2023-01-08T08:40:05;8.50;99.90
11840;DHT22;5979;50.800;4.904;2023-01-08T08:42:31;8.50;99.90
11840;DHT22;5979;50.800;4.904;2023-01-08T08:44:56;8.50;99.90
11840;DHT22;5979;50.800;4.904;2023-01-08T08:47:22;8.40;99.90
11840;DHT22;5979;50.800;4.904;2023-01-08T08:49:48;8.40;99.90
11840;DHT22;5979;50.800;4.904;2023-01-08T08:52:13;8.40;99.90
11840;DHT22;5979;50.800;4.904;2023-01-08T08:54:39;8.30;99.90
11840;DHT22;5979;50.800;4.904;2023-01-08T08:57:07;8.30;99.90
11840;DHT22;5979;50.800;4.904;2023-01-08T08:59:33;8.30;99.90
11840;DHT22;5979;50.800;4.904;2023-01-08T09:01:59;8.30;99.90
11840;DHT22;5979;50.800;4.904;2023-01-08T09:04:25;8.30;99.90
11840;DHT22;5979;50.800;4.904;2023-01-08T09:06:50;8.20;99.90
11840;DHT22;5979;50.800;4.904;2023-01-08T09:09:16;8.30;99.90
11840;DHT22;5979;50.800;4.904;2023-01-08T09:11:42;8.30;99.90
11840;DHT22;5979;50.800;4.904;2023-01-08T09:14:09;8.20;99.90
11840;DHT22;5979;50.800;4.904;2023-01-08T09:16:34;8.30;99.90
11840;DHT22;5979;50.800;4.904;2023-01-08T09:19:02;8.30;99.90
11840;DHT22;5979;50.800;4.904;2023-01-08T09:21:27;8.30;99.90
11840;DHT22;5979;50.800;4.904;2023-01-08T09:23:53;8.30;99.90
11840;DHT22;5979;50.800;4.904;2023-01-08T09:26:19;8.40;99.90
11840;DHT22;5979;50.800;4.904;2023-01-08T09:28:44;8.40;99.90
11840;DHT22;5979;50.800;4.904;2023-01-08T09:31:10;8.50;99.90
11840;DHT22;5979;50.800;4.904;2023-01-08T09:33:36;8.50;99.90
11840;DHT22;5979;50.800;4.904;2023-01-08T09:36:01;8.60;99.90
11840;DHT22;5979;50.800;4.904;2023-01-08T09:38:27;8.50;99.90
11840;DHT22;5979;50.800;4.904;2023-01-08T09:40:57;8.60;99.90
11840;DHT22;5979;50.800;4.904;2023-01-08T09:43:25;8.60;99.90
11840;DHT22;5979;50.800;4.904;2023-01-08T09:45:55;8.60;99.90
11840;DHT22;5979;50.800;4.904;2023-01-08T09:48:31;8.70;99.90
11840;DHT22;5979;50.800;4.904;2023-01-08T09:50:58;8.60;99.90
11840;DHT22;5979;50.800;4.904;2023-01-08T09:53:24;8.70;99.90
11840;DHT22;5979;50.800;4.904;2023-01-08T09:56:00;8.70;99.90
11840;DHT22;5979;50.800;4.904;2023-01-08T09:58:39;8.70;99.90
11840;DHT22;5979;50.800;4.904;2023-01-08T10:01:05;8.60;99.90
11840;DHT22;5979;50.800;4.904;2023-01-08T10:03:59;8.60;99.90
11840;DHT22;5979;50.800;4.904;2023-01-08T10:06:28;8.70;99.90
11840;DHT22;5979;50.800;4.904;2023-01-08T10:08:56;8.80;99.90
11840;DHT22;5979;50.800;4.904;2023-01-08T10:11:23;8.90;99.90
11840;DHT22;5979;50.800;4.904;2023-01-08T10:13:53;9.00;99.90
11840;DHT22;5979;50.800;4.904;2023-01-08T10:16:33;9.10;99.90
11840;DHT22;5979;50.800;4.904;2023-01-08T10:19:02;9.10;99.90
11840;DHT22;5979;50.800;4.904;2023-01-08T10:21:32;9.20;99.90
11840;DHT22;5979;50.800;4.904;2023-01-08T10:24:00;9.20;99.90
11840;DHT22;5979;50.800;4.904;2023-01-08T10:26:32;9.30;99.90
11840;DHT22;5979;50.800;4.904;2023-01-08T10:31:33;9.50;99.90
11840;DHT22;5979;50.800;4.904;2023-01-08T10:34:08;9.50;99.90
11840;DHT22;5979;50.800;4.904;2023-01-08T10:36:38;9.50;99.90
11840;DHT22;5979;50.800;4.904;2023-01-08T10:39:05;9.50;99.90
11840;DHT22;5979;50.800;4.904;2023-01-08T10:41:36;9.60;99.90
11840;DHT22;5979;50.800;4.904;2023-01-08T10:44:05;9.70;99.90
11840;DHT22;5979;50.800;4.904;2023-01-08T10:46:42;9.70;99.90
11840;DHT22;5979;50.800;4.904;2023-01-08T10:49:28;9.70;99.90
11840;DHT22;5979;50.800;4.904;2023-01-08T10:51:56;9.80;99.90
11840;DHT22;5979;50.800;4.904;2023-01-08T10:54:38;9.80;99.90
11840;DHT22;5979;50.800;4.904;2023-01-08T10:59:44;9.90;99.90
11840;DHT22;5979;50.800;4.904;2023-01-08T11:02:21;9.90;99.90
11840;DHT22;5979;50.800;4.904;2023-01-08T11:04:50;9.90;99.90
11840;DHT22;5979;50.800;4.904;2023-01-08T11:07:19;10.00;99.90
11840;DHT22;5979;50.800;4.904;2023-01-08T11:09:48;10.00;99.90
11840;DHT22;5979;50.800;4.904;2023-01-08T11:12:39;10.00;99.90
11840;DHT22;5979;50.800;4.904;2023-01-08T11:15:27;10.00;99.90
11840;DHT22;5979;50.800;4.904;2023-01-08T11:17:53;10.00;99.90
11840;DHT22;5979;50.800;4.904;2023-01-08T11:20:22;10.10;99.90
11840;DHT22;5979;50.800;4.904;2023-01-08T11:22:48;10.10;99.90
11840;DHT22;5979;50.800;4.904;2023-01-08T11:25:26;10.20;99.90
11840;DHT22;5979;50.800;4.904;2023-01-08T11:27:53;10.20;99.90
11840;DHT22;5979;50.800;4.904;2023-01-08T11:30:22;10.20;99.90
11840;DHT22;5979;50.800;4.904;2023-01-08T11:33:04;10.20;99.90
11840;DHT22;5979;50.800;4.904;2023-01-08T11:38:34;10.20;99.90
11840;DHT22;5979;50.800;4.904;2023-01-08T11:41:18;10.20;99.90
11840;DHT22;5979;50.800;4.904;2023-01-08T11:52:31;10.40;99.90
11840;DHT22;5979;50.800;4.904;2023-01-08T12:12:06;10.30;99.90
11840;DHT22;5979;50.800;4.904;2023-01-08T12:26:17;10.40;99.90
11840;DHT22;5979;50.800;4.904;2023-01-08T12:31:39;10.30;99.90
11840;DHT22;5979;50.800;4.904;2023-01-08T12:34:18;10.20;99.90
11840;DHT22;5979;50.800;4.904;2023-01-08T12:36:49;10.20;99.90
11840;DHT22;5979;50.800;4.904;2023-01-08T12:39:27;10.20;99.90
11840;DHT22;5979;50.800;4.904;2023-01-08T12:42:06;10.20;99.90
11840;DHT22;5979;50.800;4.904;2023-01-08T12:44:35;10.20;99.90
11840;DHT22;5979;50.800;4.904;2023-01-08T12:47:06;10.30;99.90
11840;DHT22;5979;50.800;4.904;2023-01-08T12:50:03;10.30;99.90
11840;DHT22;5979;50.800;4.904;2023-01-08T12:52:45;10.30;99.90
11840;DHT22;5979;50.800;4.904;2023-01-08T13:00:47;10.30;99.90
11840;DHT22;5979;50.800;4.904;2023-01-08T13:03:21;10.30;99.90
11840;DHT22;5979;50.800;4.904;2023-01-08T13:05:49;10.30;99.90
11840;DHT22;5979;50.800;4.904;2023-01-08T13:08:33;10.30;99.90
11840;DHT22;5979;50.800;4.904;2023-01-08T13:11:00;10.40;99.90
11840;DHT22;5979;50.800;4.904;2023-01-08T13:19:01;10.20;99.90
11840;DHT22;5979;50.800;4.904;2023-01-08T13:21:52;10.20;99.90
11840;DHT22;5979;50.800;4.904;2023-01-08T13:24:45;10.20;99.90
11840;DHT22;5979;50.800;4.904;2023-01-08T13:27:26;10.30;99.90
11840;DHT22;5979;50.800;4.904;2023-01-08T13:29:53;10.40;99.90
11840;DHT22;5979;50.800;4.904;2023-01-08T13:32:51;10.40;99.90
11840;DHT22;5979;50.800;4.904;2023-01-08T13:37:50;10.60;99.90
11840;DHT22;5979;50.800;4.904;2023-01-08T13:40:48;10.60;99.90
11840;DHT22;5979;50.800;4.904;2023-01-08T13:43:18;10.60;99.90
11840;DHT22;5979;50.800;4.904;2023-01-08T13:48:26;10.50;99.90
11840;DHT22;5979;50.800;4.904;2023-01-08T13:50:53;10.40;99.90
11840;DHT22;5979;50.800;4.904;2023-01-08T13:53:19;10.30;99.90
11840;DHT22;5979;50.800;4.904;2023-01-08T13:56:06;10.20;99.90
11840;DHT22;5979;50.800;4.904;2023-01-08T13:58:35;10.20;99.90
11840;DHT22;5979;50.800;4.904;2023-01-08T14:01:02;10.10;99.90
11840;DHT22;5979;50.800;4.904;2023-01-08T14:03:34;10.10;99.90
11840;DHT22;5979;50.800;4.904;2023-01-08T14:06:20;10.10;99.90
11840;DHT22;5979;50.800;4.904;2023-01-08T14:13:59;10.30;99.90
11840;DHT22;5979;50.800;4.904;2023-01-08T14:16:26;10.30;99.90
11840;DHT22;5979;50.800;4.904;2023-01-08T14:18:56;10.30;99.90
11840;DHT22;5979;50.800;4.904;2023-01-08T14:21:24;10.30;99.90
11840;DHT22;5979;50.800;4.904;2023-01-08T14:23:50;10.20;99.90
11840;DHT22;5979;50.800;4.904;2023-01-08T14:26:36;10.20;99.90
11840;DHT22;5979;50.800;4.904;2023-01-08T14:29:29;10.10;99.90
11840;DHT22;5979;50.800;4.904;2023-01-08T14:31:59;10.00;99.90
11840;DHT22;5979;50.800;4.904;2023-01-08T14:34:30;9.90;99.90
11840;DHT22;5979;50.800;4.904;2023-01-08T14:36:56;9.90;99.90
11840;DHT22;5979;50.800;4.904;2023-01-08T14:39:33;9.90;99.90
11840;DHT22;5979;50.800;4.904;2023-01-08T14:42:05;9.90;99.90
11840;DHT22;5979;50.800;4.904;2023-01-08T14:44:55;9.90;99.90
11840;DHT22;5979;50.800;4.904;2023-01-08T14:47:26;9.90;99.90
11840;DHT22;5979;50.800;4.904;2023-01-08T14:49:54;10.00;99.90
11840;DHT22;5979;50.800;4.904;2023-01-08T14:52:20;10.00;99.90
11840;DHT22;5979;50.800;4.904;2023-01-08T14:54:53;10.10;99.90
11840;DHT22;5979;50.800;4.904;2023-01-08T14:57:20;10.10;99.90
11840;DHT22;5979;50.800;4.904;2023-01-08T14:59:55;10.10;99.90
11840;DHT22;5979;50.800;4.904;2023-01-08T15:02:32;10.00;99.90
11840;DHT22;5979;50.800;4.904;2023-01-08T15:07:54;10.00;99.90
11840;DHT22;5979;50.800;4.904;2023-01-08T15:10:34;9.90;99.90
11840;DHT22;5979;50.800;4.904;2023-01-08T15:13:00;9.90;99.90
11840;DHT22;5979;50.800;4.904;2023-01-08T15:15:29;9.80;99.90
11840;DHT22;5979;50.800;4.904;2023-01-08T15:17:56;9.80;99.90
11840;DHT22;5979;50.800;4.904;2023-01-08T15:20:25;9.70;99.90
11840;DHT22;5979;50.800;4.904;2023-01-08T15:22:53;9.70;99.90
11840;DHT22;5979;50.800;4.904;2023-01-08T15:25:25;9.60;99.90
11840;DHT22;5979;50.800;4.904;2023-01-08T15:28:00;9.60;99.90
11840;DHT22;5979;50.800;4.904;2023-01-08T15:30:35;9.50;99.90
11840;DHT22;5979;50.800;4.904;2023-01-08T15:33:07;9.50;99.90
11840;DHT22;5979;50.800;4.904;2023-01-08T15:35:33;9.50;99.90
11840;DHT22;5979;50.800;4.904;2023-01-08T15:37:58;9.40;99.90
11840;DHT22;5979;50.800;4.904;2023-01-08T15:40:24;9.40;99.90
11840;DHT22;5979;50.800;4.904;2023-01-08T15:42:50;9.30;99.90
11840;DHT22;5979;50.800;4.904;2023-01-08T15:45:34;9.30;99.90
11840;DHT22;5979;50.800;4.904;2023-01-08T15:48:01;9.30;99.90
11840;DHT22;5979;50.800;4.904;2023-01-08T15:50:28;9.40;99.90
11840;DHT22;5979;50.800;4.904;2023-01-08T15:52:56;9.40;99.90
11840;DHT22;5979;50.800;4.904;2023-01-08T15:55:23;9.40;99.90
11840;DHT22;5979;50.800;4.904;2023-01-08T15:57:49;9.40;99.90
11840;DHT22;5979;50.800;4.904;2023-01-08T16:00:17;9.40;99.90
11840;DHT22;5979;50.800;4.904;2023-01-08T16:02:48;9.30;99.90
11840;DHT22;5979;50.800;4.904;2023-01-08T16:05:14;9.30;99.90
11840;DHT22;5979;50.800;4.904;2023-01-08T16:07:42;9.30;99.90
11840;DHT22;5979;50.800;4.904;2023-01-08T16:10:08;9.30;99.90
11840;DHT22;5979;50.800;4.904;2023-01-08T16:12:34;9.30;99.90
11840;DHT22;5979;50.800;4.904;2023-01-08T16:15:00;9.30;99.90
11840;DHT22;5979;50.800;4.904;2023-01-08T16:17:28;9.30;99.90
11840;DHT22;5979;50.800;4.904;2023-01-08T16:19:54;9.30;99.90
11840;DHT22;5979;50.800;4.904;2023-01-08T16:22:20;9.30;99.90
11840;DHT22;5979;50.800;4.904;2023-01-08T16:24:46;9.30;99.90
11840;DHT22;5979;50.800;4.904;2023-01-08T16:27:12;9.20;99.90
11840;DHT22;5979;50.800;4.904;2023-01-08T16:29:37;9.20;99.90
11840;DHT22;5979;50.800;4.904;2023-01-08T16:32:03;9.10;99.90
11840;DHT22;5979;50.800;4.904;2023-01-08T16:34:29;9.10;99.90
11840;DHT22;5979;50.800;4.904;2023-01-08T16:36:54;9.10;99.90
11840;DHT22;5979;50.800;4.904;2023-01-08T16:39:20;9.00;99.90
11840;DHT22;5979;50.800;4.904;2023-01-08T16:41:47;9.00;99.90
11840;DHT22;5979;50.800;4.904;2023-01-08T16:44:21;9.00;99.90
11840;DHT22;5979;50.800;4.904;2023-01-08T16:46:47;8.90;99.90
11840;DHT22;5979;50.800;4.904;2023-01-08T16:49:13;8.90;99.90
11840;DHT22;5979;50.800;4.904;2023-01-08T16:51:39;8.80;99.90
11840;DHT22;5979;50.800;4.904;2023-01-08T16:54:05;8.80;99.90
11840;DHT22;5979;50.800;4.904;2023-01-08T16:56:31;8.80;99.90
11840;DHT22;5979;50.800;4.904;2023-01-08T16:58:57;8.80;99.90
11840;DHT22;5979;50.800;4.904;2023-01-08T17:01:22;8.70;99.90
11840;DHT22;5979;50.800;4.904;2023-01-08T17:03:49;8.70;99.90
11840;DHT22;5979;50.800;4.904;2023-01-08T17:06:14;8.70;99.90
11840;DHT22;5979;50.800;4.904;2023-01-08T17:08:40;8.70;99.90
11840;DHT22;5979;50.800;4.904;2023-01-08T17:11:20;8.60;99.90
11840;DHT22;5979;50.800;4.904;2023-01-08T17:13:47;8.60;99.90
11840;DHT22;5979;50.800;4.904;2023-01-08T17:16:14;8.60;99.90
11840;DHT22;5979;50.800;4.904;2023-01-08T17:18:41;8.60;99.90
11840;DHT22;5979;50.800;4.904;2023-01-08T17:21:08;8.60;99.90
11840;DHT22;5979;50.800;4.904;2023-01-08T17:23:35;8.50;99.90
11840;DHT22;5979;50.800;4.904;2023-01-08T17:26:04;8.50;99.90
11840;DHT22;5979;50.800;4.904;2023-01-08T17:28:33;8.50;99.90
11840;DHT22;5979;50.800;4.904;2023-01-08T17:31:11;8.60;99.90
11840;DHT22;5979;50.800;4.904;2023-01-08T17:33:40;8.60;99.90
11840;DHT22;5979;50.800;4.904;2023-01-08T17:36:14;8.60;99.90
11840;DHT22;5979;50.800;4.904;2023-01-08T17:38:40;8.70;99.90
11840;DHT22;5979;50.800;4.904;2023-01-08T17:41:08;8.70;99.90
11840;DHT22;5979;50.800;4.904;2023-01-08T17:43:35;8.70;99.90